createdAt,value
2022-11-24T00:01:39.140Z,4.60
2022-11-24T00:04:40.152Z,4.13
2022-11-24T00:07:41.203Z,4.13
2022-11-24T00:10:35.129Z,5.38
2022-11-24T00:13:36.138Z,4.93
2022-11-24T00:16:38.159Z,4.53
2022-11-24T00:19:39.126Z,5.55
2022-11-24T00:22:40.140Z,4.35
2022-11-24T00:25:41.140Z,5.22
2022-11-24T00:28:42.311Z,4.13
2022-11-24T00:31:50.130Z,4.13
2022-11-24T00:34:51.191Z,5.18
2022-11-24T00:37:52.137Z,4.15
2022-11-24T00:40:53.156Z,4.70
2022-11-24T00:43:54.146Z,5.03
2022-11-24T00:46:55.203Z,4.75
2022-11-24T00:49:56.156Z,5.18
2022-11-24T00:52:57.143Z,4.00
2022-11-24T00:56:03.168Z,4.10
2022-11-24T00:59:04.137Z,4.13
2022-11-24T01:02:05.208Z,3.92
2022-11-24T01:05:06.139Z,4.63
2022-11-24T01:08:07.139Z,3.95
2022-11-24T01:11:01.142Z,4.20
2022-11-24T01:14:05.165Z,3.65
2022-11-24T01:17:06.145Z,4.65
2022-11-24T01:20:07.177Z,4.05
2022-11-24T01:23:08.148Z,4.70
2022-11-24T01:26:02.172Z,4.45
2022-11-24T01:29:10.151Z,3.08
2022-11-24T01:32:11.149Z,3.92
2022-11-24T01:35:12.183Z,3.78
2022-11-24T01:38:13.148Z,4.90
2022-11-24T01:41:29.167Z,4.68
2022-11-24T01:44:41.171Z,4.30
2022-11-24T01:47:48.232Z,4.15
2022-11-24T01:50:49.184Z,4.20
2022-11-24T01:53:50.181Z,4.07
2022-11-24T01:56:54.180Z,3.83
2022-11-24T01:59:55.194Z,4.50
2022-11-24T02:03:07.157Z,4.05
2022-11-24T02:06:24.200Z,3.70
2022-11-24T02:09:39.191Z,3.70
2022-11-24T02:12:40.167Z,4.25
2022-11-24T02:15:42.209Z,3.58
2022-11-24T02:18:43.190Z,5.00
2022-11-24T02:21:44.187Z,3.85
2022-11-24T02:24:53.186Z,3.60
2022-11-24T02:27:56.190Z,3.80
2022-11-24T02:30:57.224Z,5.38
2022-11-24T02:33:58.172Z,4.10
2022-11-24T02:36:52.184Z,3.85
2022-11-24T02:39:53.186Z,4.78
2022-11-24T02:42:56.222Z,3.47
2022-11-24T02:45:57.283Z,4.55
2022-11-24T02:48:58.169Z,3.85
2022-11-24T02:51:59.201Z,3.95
2022-11-24T02:55:00.234Z,5.22
2022-11-24T02:58:01.225Z,4.45
2022-11-24T03:01:03.203Z,4.55
2022-11-24T03:04:05.196Z,3.90
2022-11-24T03:07:06.292Z,4.45
2022-11-24T03:10:07.217Z,4.88
2022-11-24T03:13:08.242Z,5.07
2022-11-24T03:16:09.273Z,4.78
2022-11-24T03:19:10.233Z,4.10
2022-11-24T03:22:11.233Z,4.20
2022-11-24T03:25:12.215Z,4.22
2022-11-24T03:28:13.211Z,4.60
2022-11-24T03:31:14.299Z,4.47
2022-11-24T03:34:15.195Z,4.63
2022-11-24T03:37:16.227Z,4.50
2022-11-24T03:40:17.245Z,4.10
2022-11-24T03:43:18.213Z,5.32
2022-11-24T03:46:19.230Z,4.47
2022-11-24T03:49:20.227Z,5.55
2022-11-24T03:52:21.220Z,4.40
2022-11-24T03:55:22.215Z,4.97
2022-11-24T03:58:23.235Z,4.18
2022-11-24T04:01:24.264Z,4.72
2022-11-24T04:04:26.236Z,5.22
2022-11-24T04:07:27.269Z,5.00
2022-11-24T04:10:28.229Z,4.22
2022-11-24T04:13:30.258Z,4.80
2022-11-24T04:16:32.332Z,3.67
2022-11-24T04:19:33.257Z,4.93
2022-11-24T04:22:34.244Z,4.68
2022-11-24T04:25:35.238Z,4.35
2022-11-24T04:28:36.253Z,4.28
2022-11-24T04:31:37.295Z,4.55
2022-11-24T04:34:38.233Z,3.83
2022-11-24T04:37:39.277Z,4.45
2022-11-24T04:40:40.232Z,4.05
2022-11-24T04:43:41.233Z,4.10
2022-11-24T04:46:42.291Z,5.60
2022-11-24T04:49:43.261Z,4.60
2022-11-24T04:52:44.269Z,3.78
2022-11-24T04:55:45.279Z,2.75
2022-11-24T04:58:46.227Z,4.80
2022-11-24T05:01:47.355Z,5.85
2022-11-24T05:04:48.343Z,3.80
2022-11-24T05:07:49.335Z,4.20
2022-11-24T05:10:50.308Z,4.13
2022-11-24T05:13:51.223Z,4.18
2022-11-24T05:16:52.243Z,4.45
2022-11-24T05:19:53.304Z,5.40
2022-11-24T05:22:54.269Z,4.38
2022-11-24T05:25:56.281Z,4.22
2022-11-24T05:28:57.506Z,4.53
2022-11-24T05:31:58.266Z,4.85
2022-11-24T05:35:00.318Z,3.08
2022-11-24T05:38:01.247Z,4.40
2022-11-24T05:41:02.276Z,5.05
2022-11-24T05:44:03.449Z,4.00
2022-11-24T05:47:04.584Z,4.15
2022-11-24T05:50:05.508Z,4.50
2022-11-24T05:53:06.280Z,4.10
2022-11-24T05:56:08.285Z,4.10
2022-11-24T05:59:10.089Z,3.78
2022-11-24T06:02:11.469Z,3.85
2022-11-24T06:05:12.280Z,3.55
2022-11-24T06:08:13.297Z,3.20
2022-11-24T06:11:24.270Z,3.85
2022-11-24T06:14:25.310Z,3.25
2022-11-24T06:17:26.270Z,4.25
2022-11-24T06:20:32.500Z,4.10
2022-11-24T06:23:33.298Z,3.35
2022-11-24T06:26:34.317Z,3.83
2022-11-24T06:29:35.258Z,3.50
2022-11-24T06:32:36.300Z,4.20
2022-11-24T06:35:37.278Z,3.47
2022-11-24T06:38:38.321Z,3.17
2022-11-24T06:41:39.299Z,2.88
2022-11-24T06:44:40.262Z,2.08
2022-11-24T06:47:41.308Z,2.88
2022-11-24T06:50:42.308Z,2.90
2022-11-24T06:53:44.310Z,2.38
2022-11-24T06:56:45.304Z,2.28
2022-11-24T06:59:46.295Z,2.42
2022-11-24T07:02:47.308Z,1.63
2022-11-24T07:05:48.314Z,2.00
2022-11-24T07:08:49.345Z,1.92
2022-11-24T07:11:51.359Z,1.92
2022-11-24T07:14:52.446Z,1.80
2022-11-24T07:17:53.309Z,1.80
2022-11-24T07:20:54.303Z,1.65
2022-11-24T07:23:55.298Z,1.92
2022-11-24T07:26:56.318Z,1.80
2022-11-24T07:29:57.293Z,1.63
2022-11-24T07:32:58.428Z,1.40
2022-11-24T07:35:59.304Z,1.38
2022-11-24T07:39:00.325Z,1.60
2022-11-24T07:42:02.314Z,1.52
2022-11-24T07:45:03.304Z,1.05
2022-11-24T07:48:04.338Z,1.35
2022-11-24T07:51:05.339Z,1.17
2022-11-24T07:53:59.308Z,1.05
2022-11-24T07:57:03.356Z,1.35
2022-11-24T08:00:04.353Z,1.23
2022-11-24T08:03:05.313Z,2.05
2022-11-24T08:06:27.212Z,1.75
2022-11-24T08:09:24.312Z,1.17
2022-11-24T08:12:28.320Z,1.70
2022-11-24T08:15:29.310Z,1.70
2022-11-24T08:18:31.350Z,2.22
2022-11-24T08:21:32.346Z,1.42
2022-11-24T08:24:26.327Z,1.52
2022-11-24T08:27:28.340Z,1.55
2022-11-24T08:30:29.363Z,1.98
2022-11-24T08:33:30.331Z,1.63
2022-11-24T08:36:32.372Z,1.90
2022-11-24T08:39:33.319Z,2.28
2022-11-24T08:42:34.368Z,1.92
2022-11-24T08:45:41.002Z,2.45
2022-11-24T08:48:42.337Z,2.10
2022-11-24T08:51:43.376Z,1.85
2022-11-24T08:54:44.334Z,1.90
2022-11-24T08:57:45.353Z,2.47
2022-11-24T09:00:46.340Z,2.28
2022-11-24T09:03:50.613Z,1.90
2022-11-24T09:06:53.355Z,3.05
2022-11-24T09:09:55.486Z,2.15
2022-11-24T09:12:58.353Z,2.80
2022-11-24T09:15:59.340Z,3.28
2022-11-24T09:19:00.355Z,2.60
2022-11-24T09:22:01.367Z,3.20
2022-11-24T09:25:02.360Z,2.60
2022-11-24T09:28:05.431Z,3.20
2022-11-24T09:31:06.392Z,2.88
2022-11-24T09:34:08.360Z,2.17
2022-11-24T09:37:09.487Z,2.90
2022-11-24T09:40:10.368Z,2.15
2022-11-24T09:43:26.358Z,2.60
2022-11-24T09:46:47.379Z,2.90
2022-11-24T09:50:04.385Z,2.43
2022-11-24T09:53:14.380Z,2.47
2022-11-24T09:56:28.402Z,2.38
2022-11-24T09:59:31.412Z,3.00
2022-11-24T10:02:32.412Z,2.85
2022-11-24T10:05:33.383Z,2.50
2022-11-24T10:08:56.423Z,2.10
2022-11-24T10:12:06.394Z,3.10
2022-11-24T10:15:18.392Z,2.53
2022-11-24T10:18:31.367Z,2.35
2022-11-24T10:21:45.442Z,2.22
2022-11-24T10:24:57.380Z,3.53
2022-11-24T10:28:06.408Z,2.20
2022-11-24T10:31:18.436Z,2.13
2022-11-24T10:34:42.400Z,2.75
2022-11-24T10:37:50.408Z,2.97
2022-11-24T10:40:58.272Z,2.45
2022-11-24T10:43:59.399Z,2.80
2022-11-24T10:47:00.435Z,2.42
2022-11-24T10:50:16.465Z,2.30
2022-11-24T10:53:29.457Z,2.75
2022-11-24T10:56:31.413Z,2.72
2022-11-24T10:59:31.438Z,3.67
2022-11-24T11:02:44.546Z,2.30
2022-11-24T11:05:48.436Z,3.00
2022-11-24T11:08:49.438Z,2.50
2022-11-24T11:11:53.414Z,2.38
2022-11-24T11:14:54.426Z,2.47
2022-11-24T11:17:56.432Z,2.25
2022-11-24T11:21:11.415Z,2.83
2022-11-24T11:24:13.421Z,2.72
2022-11-24T11:27:35.468Z,2.75
2022-11-24T11:34:20.511Z,3.78
2022-11-24T11:37:27.965Z,3.63
2022-11-24T11:40:30.469Z,3.00
2022-11-24T11:43:42.463Z,2.95
2022-11-24T11:46:44.752Z,3.13
2022-11-24T11:49:46.481Z,3.00
2022-11-24T11:53:39.433Z,3.20
2022-11-24T11:56:57.506Z,2.40
2022-11-24T12:00:19.439Z,3.17
2022-11-24T12:03:48.572Z,3.08
2022-11-24T12:06:55.483Z,2.83
2022-11-24T12:10:05.522Z,2.85
2022-11-24T12:13:40.640Z,3.00
2022-11-24T12:16:51.441Z,2.90
2022-11-24T12:20:16.449Z,2.88
2022-11-24T12:24:09.464Z,2.88
2022-11-24T12:27:22.937Z,4.15
2022-11-24T12:30:26.797Z,2.60
2022-11-24T12:34:01.739Z,2.80
2022-11-24T12:37:21.526Z,1.95
2022-11-24T12:40:25.461Z,2.70
2022-11-24T12:43:46.715Z,2.42
2022-11-24T12:47:05.556Z,3.03
2022-11-24T12:50:26.477Z,3.05
2022-11-24T12:53:30.483Z,2.42
2022-11-24T12:56:36.484Z,2.90
2022-11-24T12:59:59.455Z,3.42
2022-11-24T13:03:27.480Z,2.45
2022-11-24T13:06:58.506Z,2.60
2022-11-24T13:14:36.436Z,2.80
2022-11-24T13:18:03.945Z,2.58
2022-11-24T13:21:07.470Z,2.40
2022-11-24T13:24:12.600Z,2.85
2022-11-24T13:27:33.470Z,2.30
2022-11-24T13:30:49.665Z,2.30
2022-11-24T13:33:51.680Z,2.53
2022-11-24T13:37:31.459Z,3.45
2022-11-24T13:40:27.493Z,2.58
2022-11-24T13:43:21.507Z,3.05
2022-11-24T13:46:23.578Z,2.30
2022-11-24T13:49:27.679Z,2.35
2022-11-24T13:52:49.489Z,2.47
2022-11-24T13:55:51.630Z,2.85
2022-11-24T13:58:53.496Z,2.70
2022-11-24T14:01:54.615Z,2.58
2022-11-24T14:04:57.487Z,3.13
2022-11-24T14:08:07.497Z,2.92
2022-11-24T14:11:11.524Z,2.53
2022-11-24T14:14:14.696Z,2.22
2022-11-24T14:17:26.517Z,3.03
2022-11-24T14:20:36.514Z,3.10
2022-11-24T14:23:38.510Z,2.45
2022-11-24T14:26:46.489Z,3.70
2022-11-24T14:29:52.808Z,2.83
2022-11-24T14:32:55.495Z,2.35
2022-11-24T14:36:00.513Z,3.22
2022-11-24T14:39:01.494Z,2.95
2022-11-24T14:42:18.562Z,2.88
2022-11-24T14:45:19.493Z,3.03
2022-11-24T14:48:29.575Z,3.00
2022-11-24T14:51:42.568Z,3.00
2022-11-24T14:55:22.771Z,4.05
2022-11-24T14:58:44.513Z,2.63
2022-11-24T15:01:47.613Z,3.50
2022-11-24T15:05:11.124Z,3.55
2022-11-24T15:08:08.521Z,2.78
2022-11-24T15:11:11.515Z,3.05
2022-11-24T15:14:12.644Z,3.42
2022-11-24T15:17:13.551Z,3.28
2022-11-24T15:20:22.555Z,2.90
2022-11-24T15:23:33.815Z,4.15
2022-11-24T15:26:41.443Z,2.97
2022-11-24T15:29:42.508Z,3.00
2022-11-24T15:32:43.600Z,3.28
2022-11-24T15:35:45.743Z,3.35
2022-11-24T15:38:46.516Z,3.00
2022-11-24T15:41:48.574Z,3.10
2022-11-24T15:44:49.525Z,3.50
2022-11-24T15:47:50.559Z,3.63
2022-11-24T15:50:51.555Z,3.47
2022-11-24T15:54:00.394Z,3.53
2022-11-24T15:57:01.614Z,3.38
2022-11-24T16:00:02.578Z,3.58
2022-11-24T16:03:38.357Z,3.03
2022-11-24T16:06:30.633Z,3.50
2022-11-24T16:09:31.518Z,3.05
2022-11-24T16:12:33.555Z,3.70
2022-11-24T16:15:34.684Z,3.78
2022-11-24T16:18:35.564Z,4.15
2022-11-24T16:21:36.541Z,3.97
2022-11-24T16:24:37.550Z,4.05
2022-11-24T16:27:38.609Z,3.78
2022-11-24T16:30:40.535Z,4.20
2022-11-24T16:33:47.580Z,3.92
2022-11-24T16:36:49.576Z,4.30
2022-11-24T16:39:50.580Z,4.90
2022-11-24T16:42:51.764Z,4.45
2022-11-24T16:45:52.611Z,4.72
2022-11-24T16:48:53.573Z,4.47
2022-11-24T16:51:54.815Z,4.70
2022-11-24T16:54:55.569Z,3.25
2022-11-24T16:57:56.584Z,3.50
2022-11-24T17:00:57.637Z,5.20
2022-11-24T17:03:51.571Z,4.32
2022-11-24T17:06:52.576Z,4.35
2022-11-24T17:09:53.600Z,4.13
2022-11-24T17:12:54.584Z,4.13
2022-11-24T17:15:55.564Z,4.10
2022-11-24T17:18:57.571Z,4.05
2022-11-24T17:21:58.599Z,4.07
2022-11-24T17:28:00.578Z,4.18
2022-11-24T17:31:01.574Z,4.07
2022-11-24T17:34:02.648Z,4.05
2022-11-24T17:37:03.599Z,4.13
2022-11-24T17:40:27.446Z,4.57
2022-11-24T17:43:26.577Z,4.35
2022-11-24T17:46:27.631Z,4.88
2022-11-24T17:49:28.645Z,3.72
2022-11-24T17:52:30.609Z,4.15
2022-11-24T17:58:32.605Z,3.87
2022-11-24T18:01:34.627Z,3.88
2022-11-24T18:04:28.581Z,4.38
2022-11-24T18:07:29.648Z,4.53
2022-11-24T18:10:30.617Z,3.72
2022-11-24T18:13:54.951Z,3.20
2022-11-24T18:16:52.673Z,3.53
2022-11-24T18:19:53.588Z,4.20
2022-11-24T18:23:09.826Z,3.72
2022-11-24T18:26:12.583Z,3.65
2022-11-24T18:29:13.606Z,3.63
2022-11-24T18:32:14.695Z,3.65
2022-11-24T18:35:15.617Z,3.20
2022-11-24T18:38:16.591Z,3.55
2022-11-24T18:41:17.595Z,3.05
2022-11-24T18:44:18.608Z,3.40
2022-11-24T18:47:19.623Z,3.85
2022-11-24T18:50:21.603Z,3.50
2022-11-24T18:53:22.641Z,3.58
2022-11-24T18:56:31.599Z,3.13
2022-11-24T18:59:32.586Z,4.43
2022-11-24T19:02:33.672Z,4.25
2022-11-24T19:05:34.612Z,4.10
2022-11-24T19:08:35.623Z,3.80
2022-11-24T19:11:41.606Z,3.80
2022-11-24T19:14:42.823Z,3.92
2022-11-24T19:17:47.231Z,4.07
2022-11-24T19:20:47.609Z,4.50
2022-11-24T19:23:49.818Z,3.63
2022-11-24T19:26:50.643Z,3.75
2022-11-24T19:29:52.639Z,3.65
2022-11-24T19:32:53.607Z,3.25
2022-11-24T19:35:54.630Z,3.75
2022-11-24T19:38:58.618Z,3.40
2022-11-24T19:41:59.646Z,3.88
2022-11-24T19:45:00.692Z,4.32
2022-11-24T19:48:01.694Z,3.83
2022-11-24T19:51:02.621Z,4.00
2022-11-24T19:54:03.675Z,4.63
2022-11-24T19:57:06.653Z,3.40
2022-11-24T20:00:07.645Z,4.22
2022-11-24T20:03:09.636Z,3.72
2022-11-24T20:06:10.706Z,4.60
2022-11-24T20:09:12.630Z,3.17
2022-11-24T20:12:13.635Z,3.38
2022-11-24T20:15:14.634Z,3.63
2022-11-24T20:18:15.636Z,3.58
2022-11-24T20:21:17.649Z,4.38
2022-11-24T20:24:20.650Z,3.72
2022-11-24T20:27:21.648Z,4.63
2022-11-24T20:30:22.657Z,4.00
2022-11-24T20:33:23.676Z,4.13
2022-11-24T20:36:25.875Z,3.80
2022-11-24T20:39:31.698Z,3.30
2022-11-24T20:42:33.654Z,3.42
2022-11-24T20:45:34.683Z,3.50
2022-11-24T20:48:35.693Z,3.90
2022-11-24T20:51:38.703Z,4.00
2022-11-24T20:54:39.648Z,4.70
2022-11-24T20:57:40.665Z,3.80
2022-11-24T21:00:41.704Z,3.17
2022-11-24T21:03:43.556Z,3.55
2022-11-24T21:06:45.672Z,4.05
2022-11-24T21:09:46.644Z,3.00
2022-11-24T21:12:47.709Z,3.30
2022-11-24T21:15:48.662Z,4.03
2022-11-24T21:18:49.669Z,4.20
2022-11-24T21:21:50.656Z,4.55
2022-11-24T21:24:51.704Z,4.22
2022-11-24T21:27:52.661Z,4.50
2022-11-24T21:30:53.832Z,3.78
2022-11-24T21:34:01.649Z,3.63
2022-11-24T21:37:02.775Z,4.15
2022-11-24T21:40:03.669Z,3.90
2022-11-24T21:43:04.670Z,4.15
2022-11-24T21:46:05.786Z,3.83
2022-11-24T21:49:07.672Z,4.38
2022-11-24T21:52:08.686Z,4.60
2022-11-24T21:55:10.673Z,4.97
2022-11-24T21:58:11.694Z,5.18
2022-11-24T22:01:19.754Z,4.60
2022-11-24T22:04:20.687Z,4.32
2022-11-24T22:07:21.734Z,4.50
2022-11-24T22:10:22.702Z,4.75
2022-11-24T22:13:23.673Z,5.63
2022-11-24T22:16:26.815Z,4.40
2022-11-24T22:19:27.697Z,4.32
2022-11-24T22:22:29.677Z,4.38
2022-11-24T22:25:30.686Z,4.68
2022-11-24T22:28:31.696Z,5.43
2022-11-24T22:31:34.743Z,5.20
2022-11-24T22:34:36.116Z,4.93
2022-11-24T22:37:36.745Z,4.50
2022-11-24T22:40:37.691Z,4.35
2022-11-24T22:43:38.717Z,4.28
2022-11-24T22:46:40.696Z,4.55
2022-11-24T22:49:41.696Z,4.00
2022-11-24T22:52:43.695Z,3.90
2022-11-24T22:55:44.713Z,4.70
2022-11-24T22:58:46.704Z,4.55
2022-11-24T23:01:47.715Z,4.45
2022-11-24T23:04:49.700Z,4.72
2022-11-24T23:07:50.772Z,4.38
2022-11-24T23:10:51.707Z,4.65
2022-11-24T23:13:52.708Z,4.13
2022-11-24T23:16:53.710Z,4.30
2022-11-24T23:19:54.717Z,4.35
2022-11-24T23:22:55.720Z,4.75
2022-11-24T23:25:56.707Z,4.78
2022-11-24T23:28:57.727Z,5.10
2022-11-24T23:31:58.779Z,4.20
2022-11-24T23:34:59.911Z,4.80
2022-11-24T23:38:09.829Z,4.15
2022-11-24T23:41:10.780Z,4.00
2022-11-24T23:44:11.733Z,4.53
2022-11-24T23:47:12.728Z,3.88
2022-11-24T23:50:14.713Z,4.05
2022-11-24T23:53:15.710Z,4.22
2022-11-24T23:56:17.737Z,3.90
2022-11-24T23:59:18.771Z,4.25
